Terminal Aerodrome Forecast
Issued by NWS El Paso, TX

Home | Current Version | Previous Version | Text Only | Print | Product List | Glossary On
Versions: 1 2 3 4 5 6 7 8 9 10 11 12 13 14 15
000
FTUS44 KEPZ 032332
TAFELP
TAF
KELP 032332Z 0400/0424 08010KT P6SM SCT100 BKN250
     FM040300 09011KT P6SM VCTS SCT050CB BKN180
     FM040600 06006KT P6SM SCT080 BKN250
     FM041800 12007KT P6SM SCT100 SCT250=

USA.gov is the U.S. government's official web portal to all federal, state and local government web resources and services.